sensor_id;sensor_type;location;lat;lon;timestamp;pressure;altitude;pressure_sealevel;temperature;humidity
7888;BME280;3989;48.810;9.208;2023-02-02T00:00:46;99431.28;;;6.46;100.00
7888;BME280;3989;48.810;9.208;2023-02-02T00:03:13;99435.88;;;6.44;100.00
7888;BME280;3989;48.810;9.208;2023-02-02T00:05:44;99429.88;;;6.42;100.00
7888;BME280;3989;48.810;9.208;2023-02-02T00:08:11;99428.91;;;6.43;100.00
7888;BME280;3989;48.810;9.208;2023-02-02T00:10:38;99432.53;;;6.42;100.00
7888;BME280;3989;48.810;9.208;2023-02-02T00:13:06;99432.53;;;6.42;100.00
7888;BME280;3989;48.810;9.208;2023-02-02T00:15:32;99237.72;;;5.29;100.00
7888;BME280;3989;48.810;9.208;2023-02-02T00:17:59;99428.44;;;6.28;100.00
7888;BME280;3989;48.810;9.208;2023-02-02T00:20:26;99421.34;;;6.28;100.00
7888;BME280;3989;48.810;9.208;2023-02-02T00:22:52;99306.34;;;5.51;100.00
7888;BME280;3989;48.810;9.208;2023-02-02T00:25:19;99430.69;;;6.23;100.00
7888;BME280;3989;48.810;9.208;2023-02-02T00:27:45;99397.97;;;5.94;100.00
7888;BME280;3989;48.810;9.208;2023-02-02T00:30:14;99378.16;;;5.67;100.00
7888;BME280;3989;48.810;9.208;2023-02-02T00:32:40;99432.88;;;6.18;100.00
7888;BME280;3989;48.810;9.208;2023-02-02T00:35:07;99270.28;;;5.20;100.00
7888;BME280;3989;48.810;9.208;2023-02-02T00:37:34;99440.25;;;6.14;100.00
7888;BME280;3989;48.810;9.208;2023-02-02T00:40:01;99313.53;;;5.40;100.00
7888;BME280;3989;48.810;9.208;2023-02-02T00:42:28;99148.28;;;4.43;100.00
7888;BME280;3989;48.810;9.208;2023-02-02T00:44:54;99270.91;;;5.03;100.00
7888;BME280;3989;48.810;9.208;2023-02-02T00:47:40;99340.41;;;5.65;100.00
7888;BME280;3989;48.810;9.208;2023-02-02T00:50:07;99430.13;;;6.19;100.00
7888;BME280;3989;48.810;9.208;2023-02-02T00:52:34;99362.47;;;5.85;100.00
7888;BME280;3989;48.810;9.208;2023-02-02T00:55:01;99411.00;;;6.25;100.00
7888;BME280;3989;48.810;9.208;2023-02-02T00:57:27;99418.81;;;6.27;100.00
7888;BME280;3989;48.810;9.208;2023-02-02T00:59:54;99231.41;;;5.20;100.00
7888;BME280;3989;48.810;9.208;2023-02-02T01:02:20;99323.25;;;5.69;100.00
7888;BME280;3989;48.810;9.208;2023-02-02T01:04:48;99358.78;;;5.97;100.00
7888;BME280;3989;48.810;9.208;2023-02-02T01:07:15;99403.72;;;6.18;100.00
7888;BME280;3989;48.810;9.208;2023-02-02T01:09:41;99236.84;;;5.19;100.00
7888;BME280;3989;48.810;9.208;2023-02-02T01:12:08;99417.72;;;6.29;100.00
7888;BME280;3989;48.810;9.208;2023-02-02T01:14:35;99415.22;;;6.38;100.00
7888;BME280;3989;48.810;9.208;2023-02-02T01:17:01;99437.56;;;6.45;100.00
7888;BME280;3989;48.810;9.208;2023-02-02T01:19:29;99439.53;;;6.52;100.00
7888;BME280;3989;48.810;9.208;2023-02-02T01:21:57;99433.25;;;6.53;100.00
7888;BME280;3989;48.810;9.208;2023-02-02T01:24:24;99427.09;;;6.53;100.00
7888;BME280;3989;48.810;9.208;2023-02-02T01:26:50;99247.63;;;5.37;100.00
7888;BME280;3989;48.810;9.208;2023-02-02T01:29:17;99424.28;;;6.25;100.00
7888;BME280;3989;48.810;9.208;2023-02-02T01:31:44;99446.59;;;6.23;100.00
7888;BME280;3989;48.810;9.208;2023-02-02T01:34:10;99441.13;;;6.24;100.00
7888;BME280;3989;48.810;9.208;2023-02-02T01:36:37;99448.81;;;6.27;100.00
7888;BME280;3989;48.810;9.208;2023-02-02T01:39:05;99444.25;;;6.39;100.00
7888;BME280;3989;48.810;9.208;2023-02-02T01:41:31;99414.09;;;6.30;100.00
7888;BME280;3989;48.810;9.208;2023-02-02T01:44:00;99385.03;;;6.10;100.00
7888;BME280;3989;48.810;9.208;2023-02-02T01:46:28;99345.75;;;5.85;100.00
7888;BME280;3989;48.810;9.208;2023-02-02T01:49:00;99451.97;;;6.52;100.00
7888;BME280;3989;48.810;9.208;2023-02-02T01:51:33;99443.44;;;6.48;100.00
7888;BME280;3989;48.810;9.208;2023-02-02T01:54:01;99387.53;;;6.11;100.00
7888;BME280;3989;48.810;9.208;2023-02-02T01:56:38;99339.50;;;5.86;100.00
7888;BME280;3989;48.810;9.208;2023-02-02T01:59:06;99438.41;;;6.45;100.00
7888;BME280;3989;48.810;9.208;2023-02-02T02:01:33;99415.91;;;6.30;100.00
7888;BME280;3989;48.810;9.208;2023-02-02T02:03:59;99328.44;;;5.71;100.00
7888;BME280;3989;48.810;9.208;2023-02-02T02:06:27;99312.63;;;5.60;100.00
7888;BME280;3989;48.810;9.208;2023-02-02T02:08:55;99438.38;;;6.36;100.00
7888;BME280;3989;48.810;9.208;2023-02-02T02:11:23;99430.44;;;6.36;100.00
7888;BME280;3989;48.810;9.208;2023-02-02T02:13:53;99399.00;;;6.21;100.00
7888;BME280;3989;48.810;9.208;2023-02-02T02:16:49;99413.66;;;6.25;100.00
7888;BME280;3989;48.810;9.208;2023-02-02T02:19:47;99430.81;;;6.31;100.00
7888;BME280;3989;48.810;9.208;2023-02-02T02:22:47;99423.09;;;6.09;100.00
7888;BME280;3989;48.810;9.208;2023-02-02T02:25:50;99409.91;;;5.88;100.00
7888;BME280;3989;48.810;9.208;2023-02-02T02:32:03;99433.97;;;6.06;100.00
7888;BME280;3989;48.810;9.208;2023-02-02T02:34:42;99398.38;;;5.99;100.00
7888;BME280;3989;48.810;9.208;2023-02-02T02:37:19;99442.84;;;6.35;100.00
7888;BME280;3989;48.810;9.208;2023-02-02T02:39:50;99467.25;;;6.29;100.00
7888;BME280;3989;48.810;9.208;2023-02-02T02:42:21;99442.28;;;6.41;100.00
7888;BME280;3989;48.810;9.208;2023-02-02T02:44:49;99324.09;;;5.70;100.00
7888;BME280;3989;48.810;9.208;2023-02-02T02:47:18;99444.66;;;6.44;100.00
7888;BME280;3989;48.810;9.208;2023-02-02T02:49:46;99413.97;;;6.32;100.00
7888;BME280;3989;48.810;9.208;2023-02-02T02:52:14;99438.53;;;6.44;100.00
7888;BME280;3989;48.810;9.208;2023-02-02T02:54:43;99339.75;;;5.82;100.00
7888;BME280;3989;48.810;9.208;2023-02-02T02:57:35;99424.03;;;6.48;100.00
7888;BME280;3989;48.810;9.208;2023-02-02T03:00:15;99413.28;;;6.30;100.00
7888;BME280;3989;48.810;9.208;2023-02-02T03:02:49;99435.03;;;6.43;100.00
7888;BME280;3989;48.810;9.208;2023-02-02T03:05:29;99440.50;;;6.42;100.00
7888;BME280;3989;48.810;9.208;2023-02-02T03:08:04;99446.78;;;6.50;100.00
7888;BME280;3989;48.810;9.208;2023-02-02T03:10:33;99424.56;;;6.32;100.00
7888;BME280;3989;48.810;9.208;2023-02-02T03:13:00;99442.59;;;6.48;100.00
7888;BME280;3989;48.810;9.208;2023-02-02T03:15:31;99436.16;;;6.41;100.00
7888;BME280;3989;48.810;9.208;2023-02-02T03:17:59;99437.44;;;6.46;100.00
7888;BME280;3989;48.810;9.208;2023-02-02T03:20:26;99402.38;;;6.23;100.00
7888;BME280;3989;48.810;9.208;2023-02-02T03:22:52;99449.13;;;6.44;100.00
7888;BME280;3989;48.810;9.208;2023-02-02T03:25:19;99428.63;;;6.36;100.00
7888;BME280;3989;48.810;9.208;2023-02-02T03:27:45;99172.97;;;4.84;100.00
7888;BME280;3989;48.810;9.208;2023-02-02T03:30:13;99215.81;;;5.17;100.00
7888;BME280;3989;48.810;9.208;2023-02-02T03:32:39;99279.75;;;5.62;100.00
7888;BME280;3989;48.810;9.208;2023-02-02T03:35:08;99439.38;;;6.44;100.00
7888;BME280;3989;48.810;9.208;2023-02-02T03:37:35;99429.47;;;6.46;100.00
7888;BME280;3989;48.810;9.208;2023-02-02T03:40:03;99414.66;;;6.34;100.00
7888;BME280;3989;48.810;9.208;2023-02-02T03:42:29;99130.31;;;4.67;100.00
7888;BME280;3989;48.810;9.208;2023-02-02T03:44:56;99344.13;;;5.93;100.00
7888;BME280;3989;48.810;9.208;2023-02-02T03:47:23;99331.19;;;5.69;100.00
7888;BME280;3989;48.810;9.208;2023-02-02T03:49:49;99438.25;;;6.56;100.00
7888;BME280;3989;48.810;9.208;2023-02-02T03:52:17;99324.69;;;5.83;100.00
7888;BME280;3989;48.810;9.208;2023-02-02T03:54:43;99430.16;;;6.39;100.00
7888;BME280;3989;48.810;9.208;2023-02-02T03:57:10;99429.19;;;6.40;100.00
7888;BME280;3989;48.810;9.208;2023-02-02T03:59:37;99424.00;;;6.38;100.00
7888;BME280;3989;48.810;9.208;2023-02-02T04:02:03;99443.44;;;6.58;100.00
7888;BME280;3989;48.810;9.208;2023-02-02T04:04:30;99444.97;;;6.60;100.00
7888;BME280;3989;48.810;9.208;2023-02-02T04:06:56;99453.78;;;6.61;100.00
7888;BME280;3989;48.810;9.208;2023-02-02T04:09:24;99450.00;;;6.54;100.00
7888;BME280;3989;48.810;9.208;2023-02-02T04:11:51;99463.41;;;6.62;100.00
7888;BME280;3989;48.810;9.208;2023-02-02T04:14:18;99422.06;;;6.40;100.00
7888;BME280;3989;48.810;9.208;2023-02-02T04:16:44;99461.75;;;6.61;100.00
7888;BME280;3989;48.810;9.208;2023-02-02T04:19:11;99449.56;;;6.49;100.00
7888;BME280;3989;48.810;9.208;2023-02-02T04:21:38;99460.31;;;6.57;100.00
7888;BME280;3989;48.810;9.208;2023-02-02T04:24:05;99422.59;;;6.34;100.00
7888;BME280;3989;48.810;9.208;2023-02-02T04:26:33;99460.47;;;6.55;100.00
7888;BME280;3989;48.810;9.208;2023-02-02T04:29:00;99468.28;;;6.57;100.00
7888;BME280;3989;48.810;9.208;2023-02-02T04:31:26;99449.28;;;6.42;100.00
7888;BME280;3989;48.810;9.208;2023-02-02T04:33:54;99454.59;;;6.42;100.00
7888;BME280;3989;48.810;9.208;2023-02-02T04:36:20;99469.69;;;6.51;100.00
7888;BME280;3989;48.810;9.208;2023-02-02T04:38:48;99472.16;;;6.53;100.00
7888;BME280;3989;48.810;9.208;2023-02-02T04:41:15;99385.00;;;6.00;100.00
7888;BME280;3989;48.810;9.208;2023-02-02T04:43:44;99481.25;;;6.60;100.00
7888;BME280;3989;48.810;9.208;2023-02-02T04:46:11;99483.66;;;6.63;100.00
7888;BME280;3989;48.810;9.208;2023-02-02T04:48:38;99487.28;;;6.62;100.00
7888;BME280;3989;48.810;9.208;2023-02-02T04:51:07;99440.31;;;6.33;100.00
7888;BME280;3989;48.810;9.208;2023-02-02T04:53:34;99476.38;;;6.55;100.00
7888;BME280;3989;48.810;9.208;2023-02-02T04:56:04;99485.59;;;6.61;100.00
7888;BME280;3989;48.810;9.208;2023-02-02T04:58:31;99478.50;;;6.61;100.00
7888;BME280;3989;48.810;9.208;2023-02-02T05:00:59;99480.56;;;6.58;100.00
7888;BME280;3989;48.810;9.208;2023-02-02T05:03:26;99488.66;;;6.66;100.00
7888;BME280;3989;48.810;9.208;2023-02-02T05:06:00;99474.16;;;6.60;100.00
7888;BME280;3989;48.810;9.208;2023-02-02T05:08:27;99494.53;;;6.69;100.00
7888;BME280;3989;48.810;9.208;2023-02-02T05:10:54;99391.31;;;6.09;100.00
7888;BME280;3989;48.810;9.208;2023-02-02T05:13:21;99491.88;;;6.69;100.00
7888;BME280;3989;48.810;9.208;2023-02-02T05:15:47;99505.31;;;6.68;100.00
7888;BME280;3989;48.810;9.208;2023-02-02T05:18:18;99149.63;;;4.58;100.00
7888;BME280;3989;48.810;9.208;2023-02-02T05:20:46;99291.81;;;5.36;100.00
7888;BME280;3989;48.810;9.208;2023-02-02T05:23:15;99505.97;;;6.60;100.00
7888;BME280;3989;48.810;9.208;2023-02-02T05:25:42;99379.47;;;5.82;100.00
7888;BME280;3989;48.810;9.208;2023-02-02T05:28:09;99514.66;;;6.62;100.00
7888;BME280;3989;48.810;9.208;2023-02-02T05:30:38;99254.16;;;4.93;100.00
7888;BME280;3989;48.810;9.208;2023-02-02T05:35:57;99490.91;;;6.61;100.00
7888;BME280;3989;48.810;9.208;2023-02-02T05:38:24;99438.47;;;6.15;100.00
7888;BME280;3989;48.810;9.208;2023-02-02T05:40:50;99509.88;;;6.66;100.00
7888;BME280;3989;48.810;9.208;2023-02-02T05:43:20;99514.69;;;6.72;100.00
7888;BME280;3989;48.810;9.208;2023-02-02T05:45:52;99413.63;;;6.06;100.00
7888;BME280;3989;48.810;9.208;2023-02-02T05:48:22;99374.81;;;5.96;100.00
7888;BME280;3989;48.810;9.208;2023-02-02T05:50:59;99473.72;;;6.46;100.00
7888;BME280;3989;48.810;9.208;2023-02-02T05:53:29;99457.06;;;6.34;100.00
7888;BME280;3989;48.810;9.208;2023-02-02T05:55:57;99232.41;;;4.89;100.00
7888;BME280;3989;48.810;9.208;2023-02-02T05:58:23;99461.41;;;6.35;100.00
7888;BME280;3989;48.810;9.208;2023-02-02T06:00:50;99471.09;;;6.55;100.00
7888;BME280;3989;48.810;9.208;2023-02-02T06:03:17;99508.53;;;6.71;100.00
7888;BME280;3989;48.810;9.208;2023-02-02T06:05:52;99177.63;;;4.70;100.00
7888;BME280;3989;48.810;9.208;2023-02-02T06:08:23;99402.88;;;6.08;100.00
7888;BME280;3989;48.810;9.208;2023-02-02T06:10:50;99481.69;;;6.55;100.00
7888;BME280;3989;48.810;9.208;2023-02-02T06:13:17;99333.25;;;5.56;100.00
7888;BME280;3989;48.810;9.208;2023-02-02T06:15:43;99483.06;;;6.50;100.00
7888;BME280;3989;48.810;9.208;2023-02-02T06:18:10;99521.06;;;6.69;100.00
7888;BME280;3989;48.810;9.208;2023-02-02T06:20:37;99499.00;;;6.59;100.00
7888;BME280;3989;48.810;9.208;2023-02-02T06:23:03;99528.47;;;6.66;100.00
7888;BME280;3989;48.810;9.208;2023-02-02T06:25:31;99455.53;;;6.31;100.00
7888;BME280;3989;48.810;9.208;2023-02-02T06:27:59;99525.00;;;6.65;100.00
7888;BME280;3989;48.810;9.208;2023-02-02T06:30:26;99529.44;;;6.65;100.00
7888;BME280;3989;48.810;9.208;2023-02-02T06:32:53;99539.22;;;6.64;100.00
7888;BME280;3989;48.810;9.208;2023-02-02T06:35:20;99520.34;;;6.48;100.00
7888;BME280;3989;48.810;9.208;2023-02-02T06:37:46;99531.22;;;6.55;100.00
7888;BME280;3989;48.810;9.208;2023-02-02T06:40:13;99512.91;;;6.42;100.00
7888;BME280;3989;48.810;9.208;2023-02-02T06:42:42;99547.19;;;6.64;100.00
7888;BME280;3989;48.810;9.208;2023-02-02T06:45:09;99546.59;;;6.61;100.00
7888;BME280;3989;48.810;9.208;2023-02-02T06:47:36;99551.94;;;6.70;100.00
7888;BME280;3989;48.810;9.208;2023-02-02T06:50:03;99548.44;;;6.70;100.00
7888;BME280;3989;48.810;9.208;2023-02-02T06:52:30;99543.00;;;6.62;100.00
7888;BME280;3989;48.810;9.208;2023-02-02T06:54:56;99539.22;;;6.64;100.00
7888;BME280;3989;48.810;9.208;2023-02-02T06:57:23;99564.22;;;6.71;100.00
7888;BME280;3989;48.810;9.208;2023-02-02T06:59:51;99556.28;;;6.71;100.00
7888;BME280;3989;48.810;9.208;2023-02-02T07:02:17;99556.84;;;6.75;100.00
7888;BME280;3989;48.810;9.208;2023-02-02T07:04:44;99550.53;;;6.76;100.00
7888;BME280;3989;48.810;9.208;2023-02-02T07:07:10;99545.81;;;6.79;100.00
7888;BME280;3989;48.810;9.208;2023-02-02T07:09:37;99535.31;;;6.68;100.00
7888;BME280;3989;48.810;9.208;2023-02-02T07:12:04;99549.19;;;6.81;100.00
7888;BME280;3989;48.810;9.208;2023-02-02T07:14:30;99549.47;;;6.78;100.00
7888;BME280;3989;48.810;9.208;2023-02-02T07:16:58;99521.31;;;6.57;100.00
7888;BME280;3989;48.810;9.208;2023-02-02T07:19:25;99532.41;;;6.71;100.00
7888;BME280;3989;48.810;9.208;2023-02-02T07:21:51;99551.13;;;6.79;100.00
7888;BME280;3989;48.810;9.208;2023-02-02T07:24:18;99525.81;;;6.66;100.00
7888;BME280;3989;48.810;9.208;2023-02-02T07:26:44;99562.47;;;6.91;100.00
7888;BME280;3989;48.810;9.208;2023-02-02T07:29:12;99556.72;;;6.96;100.00
7888;BME280;3989;48.810;9.208;2023-02-02T07:31:39;99536.88;;;6.80;100.00
7888;BME280;3989;48.810;9.208;2023-02-02T07:34:07;99538.41;;;6.73;100.00
7888;BME280;3989;48.810;9.208;2023-02-02T07:36:34;99566.94;;;6.91;100.00
7888;BME280;3989;48.810;9.208;2023-02-02T07:39:02;99544.28;;;6.86;100.00
7888;BME280;3989;48.810;9.208;2023-02-02T07:41:29;99568.34;;;6.95;100.00
7888;BME280;3989;48.810;9.208;2023-02-02T07:43:56;99566.38;;;6.97;100.00
7888;BME280;3989;48.810;9.208;2023-02-02T07:46:24;99559.13;;;6.99;100.00
7888;BME280;3989;48.810;9.208;2023-02-02T07:48:52;99573.38;;;6.98;100.00
7888;BME280;3989;48.810;9.208;2023-02-02T07:51:22;99525.00;;;6.75;100.00
7888;BME280;3989;48.810;9.208;2023-02-02T07:53:51;99559.13;;;6.99;100.00
7888;BME280;3989;48.810;9.208;2023-02-02T07:56:19;99558.16;;;7.00;100.00
7888;BME280;3989;48.810;9.208;2023-02-02T07:58:46;99548.50;;;6.99;100.00
7888;BME280;3989;48.810;9.208;2023-02-02T08:01:14;99532.72;;;6.97;100.00
7888;BME280;3989;48.810;9.208;2023-02-02T08:03:42;99522.38;;;6.94;100.00
7888;BME280;3989;48.810;9.208;2023-02-02T08:06:11;99548.38;;;7.10;100.00
7888;BME280;3989;48.810;9.208;2023-02-02T08:08:39;99525.91;;;7.04;100.00
7888;BME280;3989;48.810;9.208;2023-02-02T08:11:07;99533.59;;;7.17;100.00
7888;BME280;3989;48.810;9.208;2023-02-02T08:13:34;99543.75;;;7.12;100.00
7888;BME280;3989;48.810;9.208;2023-02-02T08:16:01;99566.13;;;7.19;100.00
7888;BME280;3989;48.810;9.208;2023-02-02T08:18:27;99567.66;;;7.21;100.00
7888;BME280;3989;48.810;9.208;2023-02-02T08:20:57;99564.16;;;7.21;100.00
7888;BME280;3989;48.810;9.208;2023-02-02T08:23:24;99589.34;;;7.36;100.00
7888;BME280;3989;48.810;9.208;2023-02-02T08:25:52;99595.22;;;7.39;100.00
7888;BME280;3989;48.810;9.208;2023-02-02T08:28:19;99598.69;;;7.40;100.00
7888;BME280;3989;48.810;9.208;2023-02-02T08:30:46;99596.47;;;7.45;100.00
7888;BME280;3989;48.810;9.208;2023-02-02T08:33:12;99598.69;;;7.40;100.00
7888;BME280;3989;48.810;9.208;2023-02-02T08:35:40;99608.91;;;7.45;100.00
7888;BME280;3989;48.810;9.208;2023-02-02T08:38:07;99578.00;;;7.24;100.00
7888;BME280;3989;48.810;9.208;2023-02-02T08:40:33;99591.56;;;7.31;100.00
7888;BME280;3989;48.810;9.208;2023-02-02T08:43:01;99620.94;;;7.49;100.00
7888;BME280;3989;48.810;9.208;2023-02-02T08:45:28;99622.59;;;7.50;100.00
7888;BME280;3989;48.810;9.208;2023-02-02T08:47:55;99605.69;;;7.41;100.00
7888;BME280;3989;48.810;9.208;2023-02-02T08:50:21;99623.72;;;7.47;100.00
7888;BME280;3989;48.810;9.208;2023-02-02T08:52:48;99644.56;;;7.42;100.00
7888;BME280;3989;48.810;9.208;2023-02-02T08:55:15;99622.06;;;7.27;100.00
7888;BME280;3989;48.810;9.208;2023-02-02T08:57:41;99624.53;;;7.19;100.00
7888;BME280;3989;48.810;9.208;2023-02-02T09:00:11;99637.13;;;7.26;100.00
7888;BME280;3989;48.810;9.208;2023-02-02T09:02:37;99648.63;;;7.36;100.00
7888;BME280;3989;48.810;9.208;2023-02-02T09:05:05;99640.50;;;7.38;100.00
7888;BME280;3989;48.810;9.208;2023-02-02T09:07:31;99652.81;;;7.39;100.00
7888;BME280;3989;48.810;9.208;2023-02-02T09:09:58;99635.31;;;7.27;100.00
7888;BME280;3989;48.810;9.208;2023-02-02T09:12:25;99628.59;;;7.23;100.00
7888;BME280;3989;48.810;9.208;2023-02-02T09:14:51;99627.19;;;7.28;100.00
7888;BME280;3989;48.810;9.208;2023-02-02T09:17:19;99638.81;;;7.37;100.00
7888;BME280;3989;48.810;9.208;2023-02-02T09:19:46;99655.75;;;7.46;100.00
7888;BME280;3989;48.810;9.208;2023-02-02T09:22:13;99634.22;;;7.39;100.00
7888;BME280;3989;48.810;9.208;2023-02-02T09:24:39;99652.94;;;7.47;100.00
7888;BME280;3989;48.810;9.208;2023-02-02T09:27:06;99654.06;;;7.45;100.00
7888;BME280;3989;48.810;9.208;2023-02-02T09:29:33;99651.97;;;7.48;100.00
7888;BME280;3989;48.810;9.208;2023-02-02T09:31:59;99619.94;;;7.30;100.00
7888;BME280;3989;48.810;9.208;2023-02-02T09:34:28;99655.03;;;7.53;100.00
7888;BME280;3989;48.810;9.208;2023-02-02T09:36:54;99625.41;;;7.38;100.00
7888;BME280;3989;48.810;9.208;2023-02-02T09:39:23;99660.34;;;7.53;100.00
7888;BME280;3989;48.810;9.208;2023-02-02T09:45:06;99648.47;;;7.38;100.00
7888;BME280;3989;48.810;9.208;2023-02-02T09:47:49;99660.78;;;7.39;100.00
7888;BME280;3989;48.810;9.208;2023-02-02T09:50:27;99656.13;;;7.31;100.00
7888;BME280;3989;48.810;9.208;2023-02-02T09:53:01;99673.78;;;7.42;100.00
7888;BME280;3989;48.810;9.208;2023-02-02T09:55:32;99644.81;;;7.20;100.00
7888;BME280;3989;48.810;9.208;2023-02-02T09:58:06;99683.25;;;7.35;100.00
7888;BME280;3989;48.810;9.208;2023-02-02T10:00:38;99661.41;;;7.12;100.00
7888;BME280;3989;48.810;9.208;2023-02-02T10:03:15;99687.41;;;7.18;100.00
7888;BME280;3989;48.810;9.208;2023-02-02T10:05:49;99668.06;;;6.97;100.00
7888;BME280;3989;48.810;9.208;2023-02-02T10:08:22;99677.88;;;7.06;100.00
7888;BME280;3989;48.810;9.208;2023-02-02T10:10:52;99683.22;;;7.16;100.00
7888;BME280;3989;48.810;9.208;2023-02-02T10:13:22;99649.75;;;6.94;100.00
7888;BME280;3989;48.810;9.208;2023-02-02T10:15:55;99672.88;;;7.13;100.00
7888;BME280;3989;48.810;9.208;2023-02-02T10:18:34;99701.94;;;7.24;100.00
7888;BME280;3989;48.810;9.208;2023-02-02T10:21:06;99697.22;;;7.27;100.00
7888;BME280;3989;48.810;9.208;2023-02-02T10:23:38;99700.44;;;7.31;100.00
7888;BME280;3989;48.810;9.208;2023-02-02T10:26:12;99704.78;;;7.32;100.00
7888;BME280;3989;48.810;9.208;2023-02-02T10:28:48;99698.91;;;7.28;100.00
7888;BME280;3989;48.810;9.208;2023-02-02T10:31:23;99689.22;;;7.18;100.00
7888;BME280;3989;48.810;9.208;2023-02-02T10:34:00;99697.75;;;7.21;100.00
7888;BME280;3989;48.810;9.208;2023-02-02T10:36:42;99691.19;;;7.25;100.00
7888;BME280;3989;48.810;9.208;2023-02-02T10:39:17;99694.81;;;7.24;100.00
7888;BME280;3989;48.810;9.208;2023-02-02T10:41:55;99698.78;;;7.30;100.00
7888;BME280;3989;48.810;9.208;2023-02-02T10:44:32;99704.22;;;7.28;100.00
7888;BME280;3989;48.810;9.208;2023-02-02T10:47:04;99697.88;;;7.10;100.00
7888;BME280;3989;48.810;9.208;2023-02-02T10:49:33;99702.72;;;7.05;100.00
7888;BME280;3989;48.810;9.208;2023-02-02T10:52:10;99702.31;;;7.00;100.00
7888;BME280;3989;48.810;9.208;2023-02-02T10:54:48;99701.19;;;7.03;100.00
7888;BME280;3989;48.810;9.208;2023-02-02T10:57:21;99692.41;;;7.12;100.00
7888;BME280;3989;48.810;9.208;2023-02-02T10:59:59;99686.72;;;7.16;100.00
7888;BME280;3989;48.810;9.208;2023-02-02T11:02:30;99702.03;;;7.43;100.00
7888;BME280;3989;48.810;9.208;2023-02-02T11:04:57;99699.91;;;7.56;100.00
7888;BME280;3989;48.810;9.208;2023-02-02T11:07:42;99659.63;;;7.32;100.00
7888;BME280;3989;48.810;9.208;2023-02-02T11:10:09;99693.34;;;7.41;100.00
7888;BME280;3989;48.810;9.208;2023-02-02T11:12:40;99696.00;;;7.41;100.00
7888;BME280;3989;48.810;9.208;2023-02-02T11:15:22;99696.28;;;7.48;100.00
7888;BME280;3989;48.810;9.208;2023-02-02T11:17:50;99681.03;;;7.50;100.00
7888;BME280;3989;48.810;9.208;2023-02-02T11:20:21;99676.72;;;7.58;100.00
7888;BME280;3989;48.810;9.208;2023-02-02T11:22:58;99693.25;;;7.71;100.00
7888;BME280;3989;48.810;9.208;2023-02-02T11:25:29;99679.41;;;7.77;100.00
7888;BME280;3989;48.810;9.208;2023-02-02T11:27:59;99674.78;;;7.89;100.00
7888;BME280;3989;48.810;9.208;2023-02-02T11:30:29;99696.19;;;7.97;100.00
7888;BME280;3989;48.810;9.208;2023-02-02T11:32:57;99663.06;;;7.91;100.00
7888;BME280;3989;48.810;9.208;2023-02-02T11:35:25;99680.38;;;7.96;100.00
7888;BME280;3989;48.810;9.208;2023-02-02T11:37:57;99684.44;;;7.90;100.00
7888;BME280;3989;48.810;9.208;2023-02-02T11:40:31;99668.09;;;7.75;100.00
7888;BME280;3989;48.810;9.208;2023-02-02T11:43:00;99675.78;;;7.78;100.00
7888;BME280;3989;48.810;9.208;2023-02-02T11:45:32;99674.94;;;7.68;100.00
7888;BME280;3989;48.810;9.208;2023-02-02T11:48:04;99681.22;;;7.67;100.00
7888;BME280;3989;48.810;9.208;2023-02-02T11:50:32;99666.22;;;7.57;100.00
7888;BME280;3989;48.810;9.208;2023-02-02T11:53:00;99680.25;;;7.59;100.00
7888;BME280;3989;48.810;9.208;2023-02-02T11:55:28;99687.19;;;7.50;100.00
7888;BME280;3989;48.810;9.208;2023-02-02T11:58:13;99667.75;;;7.40;100.00
7888;BME280;3989;48.810;9.208;2023-02-02T12:00:45;99656.72;;;7.35;100.00
7888;BME280;3989;48.810;9.208;2023-02-02T12:03:22;99664.84;;;7.43;100.00
7888;BME280;3989;48.810;9.208;2023-02-02T12:05:49;99677.81;;;7.36;100.00
7888;BME280;3989;48.810;9.208;2023-02-02T12:08:17;99672.91;;;7.32;100.00
7888;BME280;3989;48.810;9.208;2023-02-02T12:10:49;99667.19;;;7.27;100.00
7888;BME280;3989;48.810;9.208;2023-02-02T12:13:28;99680.19;;;7.30;100.00
7888;BME280;3989;48.810;9.208;2023-02-02T12:16:03;99616.03;;;6.75;100.00
7888;BME280;3989;48.810;9.208;2023-02-02T12:18:40;99689.16;;;6.99;100.00
7888;BME280;3989;48.810;9.208;2023-02-02T12:21:17;99671.78;;;6.85;100.00
7888;BME280;3989;48.810;9.208;2023-02-02T12:23:57;99686.94;;;6.73;100.00
7888;BME280;3989;48.810;9.208;2023-02-02T12:26:30;99683.81;;;6.59;100.00
7888;BME280;3989;48.810;9.208;2023-02-02T12:29:20;99672.31;;;6.49;100.00
7888;BME280;3989;48.810;9.208;2023-02-02T12:32:02;99686.09;;;6.43;100.00
7888;BME280;3989;48.810;9.208;2023-02-02T12:34:42;99598.00;;;5.88;100.00
7888;BME280;3989;48.810;9.208;2023-02-02T12:37:19;99678.34;;;6.30;100.00
7888;BME280;3989;48.810;9.208;2023-02-02T12:40:01;99625.81;;;5.82;100.00
7888;BME280;3989;48.810;9.208;2023-02-02T12:42:46;99601.56;;;5.66;100.00
7888;BME280;3989;48.810;9.208;2023-02-02T12:45:38;99664.25;;;6.09;100.00
7888;BME280;3989;48.810;9.208;2023-02-02T12:48:25;99546.53;;;5.28;100.00
7888;BME280;3989;48.810;9.208;2023-02-02T12:51:02;99572.44;;;5.46;100.00
7888;BME280;3989;48.810;9.208;2023-02-02T12:53:55;99685.97;;;6.03;100.00
7888;BME280;3989;48.810;9.208;2023-02-02T12:56:30;99505.06;;;4.86;100.00
7888;BME280;3989;48.810;9.208;2023-02-02T12:59:06;99681.88;;;5.99;100.00
7888;BME280;3989;48.810;9.208;2023-02-02T13:01:45;99669.75;;;5.85;100.00
7888;BME280;3989;48.810;9.208;2023-02-02T13:04:36;99676.28;;;5.81;100.00
7888;BME280;3989;48.810;9.208;2023-02-02T13:07:28;99623.81;;;5.43;100.00
7888;BME280;3989;48.810;9.208;2023-02-02T13:10:05;99682.09;;;5.75;100.00
7888;BME280;3989;48.810;9.208;2023-02-02T13:12:39;99698.94;;;5.74;100.00
7888;BME280;3989;48.810;9.208;2023-02-02T13:15:08;99696.56;;;5.71;100.00
7888;BME280;3989;48.810;9.208;2023-02-02T13:17:39;99635.75;;;5.38;100.00
7888;BME280;3989;48.810;9.208;2023-02-02T13:20:17;99600.66;;;5.24;100.00
7888;BME280;3989;48.810;9.208;2023-02-02T13:22:48;99682.97;;;5.64;100.00
7888;BME280;3989;48.810;9.208;2023-02-02T13:25:20;99686.88;;;5.81;100.00
7888;BME280;3989;48.810;9.208;2023-02-02T13:27:49;99560.47;;;4.99;100.00
7888;BME280;3989;48.810;9.208;2023-02-02T13:30:25;99676.31;;;5.70;100.00
7888;BME280;3989;48.810;9.208;2023-02-02T13:32:57;99709.25;;;5.88;100.00
7888;BME280;3989;48.810;9.208;2023-02-02T13:35:28;99699.97;;;5.94;100.00
7888;BME280;3989;48.810;9.208;2023-02-02T13:38:01;99423.06;;;4.22;100.00
7888;BME280;3989;48.810;9.208;2023-02-02T13:40:33;99488.34;;;4.86;100.00
7888;BME280;3989;48.810;9.208;2023-02-02T13:43:07;99707.75;;;6.06;100.00
7888;BME280;3989;48.810;9.208;2023-02-02T13:45:45;99451.56;;;4.51;100.00
7888;BME280;3989;48.810;9.208;2023-02-02T13:48:19;99716.88;;;6.13;100.00